sensor_id;sensor_type;location;lat;lon;timestamp;P1;durP1;ratioP1;P2;durP2;ratioP2
3815;SDS011;1923;48.154;11.536;2023-06-22T00:00:54;9.17;;;3.00;;
3815;SDS011;1923;48.154;11.536;2023-06-22T00:03:23;3.33;;;2.00;;
3815;SDS011;1923;48.154;11.536;2023-06-22T00:05:52;7.40;;;2.60;;
3815;SDS011;1923;48.154;11.536;2023-06-22T00:08:21;3.73;;;2.30;;
3815;SDS011;1923;48.154;11.536;2023-06-22T00:10:50;4.30;;;2.60;;
3815;SDS011;1923;48.154;11.536;2023-06-22T00:13:18;4.80;;;2.10;;
3815;SDS011;1923;48.154;11.536;2023-06-22T00:15:46;4.47;;;2.87;;
3815;SDS011;1923;48.154;11.536;2023-06-22T00:18:14;3.80;;;2.30;;
3815;SDS011;1923;48.154;11.536;2023-06-22T00:20:42;5.77;;;2.70;;
3815;SDS011;1923;48.154;11.536;2023-06-22T00:23:12;10.17;;;2.57;;
3815;SDS011;1923;48.154;11.536;2023-06-22T00:25:42;4.40;;;2.33;;
3815;SDS011;1923;48.154;11.536;2023-06-22T00:28:11;7.33;;;2.97;;
3815;SDS011;1923;48.154;11.536;2023-06-22T00:30:39;7.10;;;3.10;;
3815;SDS011;1923;48.154;11.536;2023-06-22T00:33:07;6.27;;;3.13;;
3815;SDS011;1923;48.154;11.536;2023-06-22T00:35:35;9.80;;;2.67;;
3815;SDS011;1923;48.154;11.536;2023-06-22T00:38:03;6.53;;;2.60;;
3815;SDS011;1923;48.154;11.536;2023-06-22T00:40:32;5.37;;;2.90;;
3815;SDS011;1923;48.154;11.536;2023-06-22T00:43:00;4.80;;;2.20;;
3815;SDS011;1923;48.154;11.536;2023-06-22T00:45:30;5.40;;;2.83;;
3815;SDS011;1923;48.154;11.536;2023-06-22T00:47:58;6.90;;;2.93;;
3815;SDS011;1923;48.154;11.536;2023-06-22T00:50:28;4.80;;;3.00;;
3815;SDS011;1923;48.154;11.536;2023-06-22T00:53:00;5.60;;;3.00;;
3815;SDS011;1923;48.154;11.536;2023-06-22T00:55:35;6.80;;;2.93;;
3815;SDS011;1923;48.154;11.536;2023-06-22T00:58:05;4.53;;;2.70;;
3815;SDS011;1923;48.154;11.536;2023-06-22T01:00:40;6.90;;;2.60;;
3815;SDS011;1923;48.154;11.536;2023-06-22T01:03:08;5.43;;;2.77;;
3815;SDS011;1923;48.154;11.536;2023-06-22T01:05:37;5.53;;;2.50;;
3815;SDS011;1923;48.154;11.536;2023-06-22T01:08:09;3.90;;;2.43;;
3815;SDS011;1923;48.154;11.536;2023-06-22T01:10:44;4.30;;;2.70;;
3815;SDS011;1923;48.154;11.536;2023-06-22T01:13:20;8.17;;;3.17;;
3815;SDS011;1923;48.154;11.536;2023-06-22T01:15:59;8.97;;;2.83;;
3815;SDS011;1923;48.154;11.536;2023-06-22T01:18:30;4.90;;;2.63;;
3815;SDS011;1923;48.154;11.536;2023-06-22T01:21:03;6.00;;;2.70;;
3815;SDS011;1923;48.154;11.536;2023-06-22T01:23:39;7.80;;;3.27;;
3815;SDS011;1923;48.154;11.536;2023-06-22T01:26:20;6.63;;;3.20;;
3815;SDS011;1923;48.154;11.536;2023-06-22T01:28:57;6.17;;;2.23;;
3815;SDS011;1923;48.154;11.536;2023-06-22T01:31:27;4.50;;;2.80;;
3815;SDS011;1923;48.154;11.536;2023-06-22T01:33:58;4.90;;;2.87;;
3815;SDS011;1923;48.154;11.536;2023-06-22T01:36:28;5.20;;;2.10;;
3815;SDS011;1923;48.154;11.536;2023-06-22T01:38:57;4.83;;;2.77;;
3815;SDS011;1923;48.154;11.536;2023-06-22T01:41:27;6.77;;;2.50;;
3815;SDS011;1923;48.154;11.536;2023-06-22T01:43:58;5.60;;;2.60;;
3815;SDS011;1923;48.154;11.536;2023-06-22T01:46:28;5.90;;;3.30;;
3815;SDS011;1923;48.154;11.536;2023-06-22T01:48:56;5.27;;;2.50;;
3815;SDS011;1923;48.154;11.536;2023-06-22T01:51:25;5.80;;;2.80;;
3815;SDS011;1923;48.154;11.536;2023-06-22T01:53:53;7.10;;;3.23;;
3815;SDS011;1923;48.154;11.536;2023-06-22T01:56:21;4.33;;;2.50;;
3815;SDS011;1923;48.154;11.536;2023-06-22T01:58:50;6.87;;;2.80;;
3815;SDS011;1923;48.154;11.536;2023-06-22T02:01:24;6.53;;;2.70;;
3815;SDS011;1923;48.154;11.536;2023-06-22T02:03:57;4.50;;;2.70;;
3815;SDS011;1923;48.154;11.536;2023-06-22T02:06:33;5.80;;;3.27;;
3815;SDS011;1923;48.154;11.536;2023-06-22T02:09:06;6.97;;;2.57;;
3815;SDS011;1923;48.154;11.536;2023-06-22T02:11:38;6.43;;;2.90;;
3815;SDS011;1923;48.154;11.536;2023-06-22T02:14:10;6.20;;;2.97;;
3815;SDS011;1923;48.154;11.536;2023-06-22T02:16:40;4.90;;;2.67;;
3815;SDS011;1923;48.154;11.536;2023-06-22T02:19:09;5.23;;;2.43;;
3815;SDS011;1923;48.154;11.536;2023-06-22T02:21:37;4.63;;;2.40;;
3815;SDS011;1923;48.154;11.536;2023-06-22T02:24:05;7.03;;;3.07;;
3815;SDS011;1923;48.154;11.536;2023-06-22T02:26:33;7.07;;;2.63;;
3815;SDS011;1923;48.154;11.536;2023-06-22T02:29:02;6.40;;;3.00;;
3815;SDS011;1923;48.154;11.536;2023-06-22T02:31:30;5.40;;;3.13;;
3815;SDS011;1923;48.154;11.536;2023-06-22T02:34:00;3.27;;;2.67;;
3815;SDS011;1923;48.154;11.536;2023-06-22T02:36:28;8.63;;;4.00;;
3815;SDS011;1923;48.154;11.536;2023-06-22T02:38:57;5.07;;;2.53;;
3815;SDS011;1923;48.154;11.536;2023-06-22T02:41:25;4.17;;;2.43;;
3815;SDS011;1923;48.154;11.536;2023-06-22T02:43:53;7.43;;;3.80;;
3815;SDS011;1923;48.154;11.536;2023-06-22T02:46:21;4.93;;;3.00;;
3815;SDS011;1923;48.154;11.536;2023-06-22T02:48:49;4.57;;;3.17;;
3815;SDS011;1923;48.154;11.536;2023-06-22T02:51:18;8.17;;;3.50;;
3815;SDS011;1923;48.154;11.536;2023-06-22T02:53:46;7.03;;;2.83;;
3815;SDS011;1923;48.154;11.536;2023-06-22T02:56:14;10.20;;;2.90;;
3815;SDS011;1923;48.154;11.536;2023-06-22T02:58:44;5.03;;;3.10;;
3815;SDS011;1923;48.154;11.536;2023-06-22T03:01:11;5.53;;;3.10;;
3815;SDS011;1923;48.154;11.536;2023-06-22T03:03:40;5.43;;;3.50;;
3815;SDS011;1923;48.154;11.536;2023-06-22T03:06:08;5.37;;;3.40;;
3815;SDS011;1923;48.154;11.536;2023-06-22T03:08:41;8.17;;;3.80;;
3815;SDS011;1923;48.154;11.536;2023-06-22T03:11:10;6.87;;;3.17;;
3815;SDS011;1923;48.154;11.536;2023-06-22T03:13:38;7.00;;;3.70;;
3815;SDS011;1923;48.154;11.536;2023-06-22T03:16:06;4.20;;;3.00;;
3815;SDS011;1923;48.154;11.536;2023-06-22T03:18:34;7.83;;;3.60;;
3815;SDS011;1923;48.154;11.536;2023-06-22T03:21:02;7.97;;;3.70;;
3815;SDS011;1923;48.154;11.536;2023-06-22T03:23:30;7.07;;;3.40;;
3815;SDS011;1923;48.154;11.536;2023-06-22T03:25:59;6.60;;;3.60;;
3815;SDS011;1923;48.154;11.536;2023-06-22T03:28:28;7.33;;;3.50;;
3815;SDS011;1923;48.154;11.536;2023-06-22T03:30:57;5.20;;;3.23;;
3815;SDS011;1923;48.154;11.536;2023-06-22T03:33:25;8.70;;;3.40;;
3815;SDS011;1923;48.154;11.536;2023-06-22T03:35:53;7.67;;;3.77;;
3815;SDS011;1923;48.154;11.536;2023-06-22T03:38:21;5.60;;;3.20;;
3815;SDS011;1923;48.154;11.536;2023-06-22T03:40:49;13.13;;;4.17;;
3815;SDS011;1923;48.154;11.536;2023-06-22T03:43:19;6.07;;;3.80;;
3815;SDS011;1923;48.154;11.536;2023-06-22T03:45:47;8.20;;;3.50;;
3815;SDS011;1923;48.154;11.536;2023-06-22T03:48:15;7.17;;;3.10;;
3815;SDS011;1923;48.154;11.536;2023-06-22T03:50:43;6.90;;;3.50;;
3815;SDS011;1923;48.154;11.536;2023-06-22T03:53:11;5.70;;;3.30;;
3815;SDS011;1923;48.154;11.536;2023-06-22T03:55:40;6.90;;;3.10;;
3815;SDS011;1923;48.154;11.536;2023-06-22T03:58:15;6.20;;;3.73;;
3815;SDS011;1923;48.154;11.536;2023-06-22T04:00:46;6.53;;;3.83;;
3815;SDS011;1923;48.154;11.536;2023-06-22T04:03:15;6.70;;;3.60;;
3815;SDS011;1923;48.154;11.536;2023-06-22T04:05:45;7.73;;;3.77;;
3815;SDS011;1923;48.154;11.536;2023-06-22T04:08:14;6.00;;;3.47;;
3815;SDS011;1923;48.154;11.536;2023-06-22T04:10:42;6.77;;;3.17;;
3815;SDS011;1923;48.154;11.536;2023-06-22T04:13:11;6.23;;;3.50;;
3815;SDS011;1923;48.154;11.536;2023-06-22T04:15:39;7.17;;;3.60;;
3815;SDS011;1923;48.154;11.536;2023-06-22T04:18:08;8.00;;;4.00;;
3815;SDS011;1923;48.154;11.536;2023-06-22T04:20:36;8.63;;;4.07;;
3815;SDS011;1923;48.154;11.536;2023-06-22T04:23:04;6.33;;;3.40;;
3815;SDS011;1923;48.154;11.536;2023-06-22T04:25:33;7.30;;;3.53;;
3815;SDS011;1923;48.154;11.536;2023-06-22T04:28:01;8.90;;;3.53;;
3815;SDS011;1923;48.154;11.536;2023-06-22T04:30:32;6.63;;;3.70;;
3815;SDS011;1923;48.154;11.536;2023-06-22T04:33:00;9.07;;;3.93;;
3815;SDS011;1923;48.154;11.536;2023-06-22T04:35:30;9.17;;;3.93;;
3815;SDS011;1923;48.154;11.536;2023-06-22T04:37:58;9.23;;;3.90;;
3815;SDS011;1923;48.154;11.536;2023-06-22T04:40:26;10.43;;;3.80;;
3815;SDS011;1923;48.154;11.536;2023-06-22T04:42:54;7.43;;;4.10;;
3815;SDS011;1923;48.154;11.536;2023-06-22T04:45:22;5.00;;;2.87;;
3815;SDS011;1923;48.154;11.536;2023-06-22T04:47:50;7.60;;;4.00;;
3815;SDS011;1923;48.154;11.536;2023-06-22T04:50:19;5.97;;;3.13;;
3815;SDS011;1923;48.154;11.536;2023-06-22T04:52:49;7.60;;;3.30;;
3815;SDS011;1923;48.154;11.536;2023-06-22T04:55:19;9.47;;;3.97;;
3815;SDS011;1923;48.154;11.536;2023-06-22T04:57:47;7.60;;;4.27;;
3815;SDS011;1923;48.154;11.536;2023-06-22T05:00:16;6.50;;;4.00;;
3815;SDS011;1923;48.154;11.536;2023-06-22T05:02:46;8.80;;;4.30;;
3815;SDS011;1923;48.154;11.536;2023-06-22T05:05:14;8.50;;;4.40;;
3815;SDS011;1923;48.154;11.536;2023-06-22T05:07:43;6.57;;;3.33;;
3815;SDS011;1923;48.154;11.536;2023-06-22T05:10:15;9.60;;;3.97;;
3815;SDS011;1923;48.154;11.536;2023-06-22T05:12:43;7.03;;;4.00;;
3815;SDS011;1923;48.154;11.536;2023-06-22T05:15:11;11.20;;;4.40;;
3815;SDS011;1923;48.154;11.536;2023-06-22T05:17:40;5.83;;;3.57;;
3815;SDS011;1923;48.154;11.536;2023-06-22T05:20:10;7.27;;;3.40;;
3815;SDS011;1923;48.154;11.536;2023-06-22T05:22:39;8.43;;;4.40;;
3815;SDS011;1923;48.154;11.536;2023-06-22T05:25:10;8.47;;;4.83;;
3815;SDS011;1923;48.154;11.536;2023-06-22T05:27:39;6.80;;;3.87;;
3815;SDS011;1923;48.154;11.536;2023-06-22T05:30:08;8.13;;;4.03;;
3815;SDS011;1923;48.154;11.536;2023-06-22T05:32:37;8.77;;;4.30;;
3815;SDS011;1923;48.154;11.536;2023-06-22T05:35:06;7.97;;;4.37;;
3815;SDS011;1923;48.154;11.536;2023-06-22T05:37:34;14.50;;;4.43;;
3815;SDS011;1923;48.154;11.536;2023-06-22T05:40:03;7.77;;;4.60;;
3815;SDS011;1923;48.154;11.536;2023-06-22T05:42:33;8.90;;;4.77;;
3815;SDS011;1923;48.154;11.536;2023-06-22T05:45:03;13.30;;;5.30;;
3815;SDS011;1923;48.154;11.536;2023-06-22T05:47:32;9.00;;;4.20;;
3815;SDS011;1923;48.154;11.536;2023-06-22T05:50:00;7.10;;;4.80;;
3815;SDS011;1923;48.154;11.536;2023-06-22T05:52:32;6.00;;;3.40;;
3815;SDS011;1923;48.154;11.536;2023-06-22T05:55:01;10.37;;;5.00;;
3815;SDS011;1923;48.154;11.536;2023-06-22T05:57:29;7.37;;;4.23;;
3815;SDS011;1923;48.154;11.536;2023-06-22T05:59:58;9.73;;;4.70;;
3815;SDS011;1923;48.154;11.536;2023-06-22T06:02:27;6.00;;;4.10;;
3815;SDS011;1923;48.154;11.536;2023-06-22T06:04:55;11.63;;;5.07;;
3815;SDS011;1923;48.154;11.536;2023-06-22T06:07:23;7.07;;;4.20;;
3815;SDS011;1923;48.154;11.536;2023-06-22T06:09:52;8.10;;;4.67;;
3815;SDS011;1923;48.154;11.536;2023-06-22T06:12:20;9.57;;;4.33;;
3815;SDS011;1923;48.154;11.536;2023-06-22T06:14:49;9.30;;;4.80;;
3815;SDS011;1923;48.154;11.536;2023-06-22T06:17:17;8.80;;;4.73;;
3815;SDS011;1923;48.154;11.536;2023-06-22T06:19:47;9.93;;;3.87;;
3815;SDS011;1923;48.154;11.536;2023-06-22T06:22:15;10.30;;;4.80;;
3815;SDS011;1923;48.154;11.536;2023-06-22T06:24:43;8.80;;;4.43;;
3815;SDS011;1923;48.154;11.536;2023-06-22T06:27:11;9.77;;;4.83;;
3815;SDS011;1923;48.154;11.536;2023-06-22T06:29:39;7.57;;;4.57;;
3815;SDS011;1923;48.154;11.536;2023-06-22T06:32:08;8.27;;;4.00;;
3815;SDS011;1923;48.154;11.536;2023-06-22T06:34:36;8.83;;;4.57;;
3815;SDS011;1923;48.154;11.536;2023-06-22T06:37:05;6.97;;;3.73;;
3815;SDS011;1923;48.154;11.536;2023-06-22T06:39:33;11.10;;;5.10;;
3815;SDS011;1923;48.154;11.536;2023-06-22T06:42:01;9.17;;;4.77;;
3815;SDS011;1923;48.154;11.536;2023-06-22T06:44:30;9.07;;;4.47;;
3815;SDS011;1923;48.154;11.536;2023-06-22T06:46:58;13.10;;;4.73;;
3815;SDS011;1923;48.154;11.536;2023-06-22T06:49:26;8.80;;;4.63;;
3815;SDS011;1923;48.154;11.536;2023-06-22T06:51:54;11.30;;;4.20;;
3815;SDS011;1923;48.154;11.536;2023-06-22T06:54:24;12.47;;;4.90;;
3815;SDS011;1923;48.154;11.536;2023-06-22T06:56:54;10.73;;;4.70;;
3815;SDS011;1923;48.154;11.536;2023-06-22T06:59:22;5.67;;;3.87;;
3815;SDS011;1923;48.154;11.536;2023-06-22T07:01:50;8.40;;;4.70;;
3815;SDS011;1923;48.154;11.536;2023-06-22T07:04:18;7.63;;;4.90;;
3815;SDS011;1923;48.154;11.536;2023-06-22T07:06:46;6.33;;;3.70;;
3815;SDS011;1923;48.154;11.536;2023-06-22T07:09:14;8.03;;;4.60;;
3815;SDS011;1923;48.154;11.536;2023-06-22T07:11:45;7.57;;;4.27;;
3815;SDS011;1923;48.154;11.536;2023-06-22T07:14:13;8.30;;;3.77;;
3815;SDS011;1923;48.154;11.536;2023-06-22T07:16:41;6.60;;;4.80;;
3815;SDS011;1923;48.154;11.536;2023-06-22T07:19:10;12.13;;;4.73;;
3815;SDS011;1923;48.154;11.536;2023-06-22T07:21:39;8.67;;;5.23;;
3815;SDS011;1923;48.154;11.536;2023-06-22T07:24:07;7.17;;;4.33;;
3815;SDS011;1923;48.154;11.536;2023-06-22T07:26:35;7.77;;;4.07;;
3815;SDS011;1923;48.154;11.536;2023-06-22T07:29:04;6.50;;;4.27;;
3815;SDS011;1923;48.154;11.536;2023-06-22T07:31:32;9.13;;;4.40;;
3815;SDS011;1923;48.154;11.536;2023-06-22T07:34:00;6.80;;;4.10;;
3815;SDS011;1923;48.154;11.536;2023-06-22T07:36:29;8.00;;;5.00;;
3815;SDS011;1923;48.154;11.536;2023-06-22T07:38:57;6.97;;;4.10;;
3815;SDS011;1923;48.154;11.536;2023-06-22T07:41:25;7.87;;;4.50;;
3815;SDS011;1923;48.154;11.536;2023-06-22T07:43:53;13.10;;;4.63;;
3815;SDS011;1923;48.154;11.536;2023-06-22T07:46:22;6.33;;;4.60;;
3815;SDS011;1923;48.154;11.536;2023-06-22T07:48:50;7.87;;;4.43;;
3815;SDS011;1923;48.154;11.536;2023-06-22T07:51:22;7.90;;;4.50;;
3815;SDS011;1923;48.154;11.536;2023-06-22T07:53:50;7.27;;;4.17;;
3815;SDS011;1923;48.154;11.536;2023-06-22T07:56:18;9.10;;;4.43;;
3815;SDS011;1923;48.154;11.536;2023-06-22T07:58:47;5.73;;;4.27;;
3815;SDS011;1923;48.154;11.536;2023-06-22T08:01:15;10.93;;;5.40;;
3815;SDS011;1923;48.154;11.536;2023-06-22T08:03:47;6.37;;;4.27;;
3815;SDS011;1923;48.154;11.536;2023-06-22T08:06:15;7.97;;;4.10;;
3815;SDS011;1923;48.154;11.536;2023-06-22T08:08:43;7.40;;;4.27;;
3815;SDS011;1923;48.154;11.536;2023-06-22T08:11:14;8.20;;;4.40;;
3815;SDS011;1923;48.154;11.536;2023-06-22T08:13:42;7.20;;;5.27;;
3815;SDS011;1923;48.154;11.536;2023-06-22T08:16:10;10.50;;;4.30;;
3815;SDS011;1923;48.154;11.536;2023-06-22T08:18:38;9.10;;;4.43;;
3815;SDS011;1923;48.154;11.536;2023-06-22T08:21:08;8.70;;;4.17;;
3815;SDS011;1923;48.154;11.536;2023-06-22T08:23:37;8.90;;;4.53;;
3815;SDS011;1923;48.154;11.536;2023-06-22T08:26:05;6.67;;;4.53;;
3815;SDS011;1923;48.154;11.536;2023-06-22T08:28:33;7.83;;;3.53;;
3815;SDS011;1923;48.154;11.536;2023-06-22T08:31:02;9.10;;;4.77;;
3815;SDS011;1923;48.154;11.536;2023-06-22T08:33:30;7.00;;;4.77;;
3815;SDS011;1923;48.154;11.536;2023-06-22T08:35:58;7.90;;;4.50;;
3815;SDS011;1923;48.154;11.536;2023-06-22T08:38:28;6.17;;;3.60;;
3815;SDS011;1923;48.154;11.536;2023-06-22T08:40:56;6.10;;;3.73;;
3815;SDS011;1923;48.154;11.536;2023-06-22T08:43:24;5.00;;;3.40;;
3815;SDS011;1923;48.154;11.536;2023-06-22T08:45:52;8.20;;;4.30;;
3815;SDS011;1923;48.154;11.536;2023-06-22T08:48:20;6.70;;;4.80;;
3815;SDS011;1923;48.154;11.536;2023-06-22T08:50:48;7.50;;;3.70;;
3815;SDS011;1923;48.154;11.536;2023-06-22T08:53:16;8.50;;;3.97;;
3815;SDS011;1923;48.154;11.536;2023-06-22T08:55:46;8.27;;;3.63;;
3815;SDS011;1923;48.154;11.536;2023-06-22T08:58:14;5.40;;;3.47;;
3815;SDS011;1923;48.154;11.536;2023-06-22T09:00:42;8.60;;;4.10;;
3815;SDS011;1923;48.154;11.536;2023-06-22T09:03:10;10.73;;;3.97;;
3815;SDS011;1923;48.154;11.536;2023-06-22T09:05:38;6.70;;;3.10;;
3815;SDS011;1923;48.154;11.536;2023-06-22T09:08:06;8.77;;;3.23;;
3815;SDS011;1923;48.154;11.536;2023-06-22T09:10:34;9.43;;;4.00;;
3815;SDS011;1923;48.154;11.536;2023-06-22T09:13:04;9.60;;;4.40;;
3815;SDS011;1923;48.154;11.536;2023-06-22T09:15:32;10.30;;;4.10;;
3815;SDS011;1923;48.154;11.536;2023-06-22T09:18:01;9.00;;;3.97;;
3815;SDS011;1923;48.154;11.536;2023-06-22T09:20:29;7.80;;;4.03;;
3815;SDS011;1923;48.154;11.536;2023-06-22T09:22:58;9.10;;;4.00;;
3815;SDS011;1923;48.154;11.536;2023-06-22T09:25:26;5.40;;;3.40;;
3815;SDS011;1923;48.154;11.536;2023-06-22T09:27:55;7.43;;;3.80;;
3815;SDS011;1923;48.154;11.536;2023-06-22T09:30:24;9.23;;;3.53;;
3815;SDS011;1923;48.154;11.536;2023-06-22T09:32:53;4.80;;;3.43;;
3815;SDS011;1923;48.154;11.536;2023-06-22T09:35:21;6.40;;;3.30;;
3815;SDS011;1923;48.154;11.536;2023-06-22T09:37:49;11.07;;;4.30;;
3815;SDS011;1923;48.154;11.536;2023-06-22T09:40:19;8.00;;;3.07;;
3815;SDS011;1923;48.154;11.536;2023-06-22T09:42:47;7.43;;;3.60;;
3815;SDS011;1923;48.154;11.536;2023-06-22T09:45:16;6.30;;;3.57;;
3815;SDS011;1923;48.154;11.536;2023-06-22T09:47:45;7.00;;;3.67;;
3815;SDS011;1923;48.154;11.536;2023-06-22T09:50:13;7.00;;;3.90;;
3815;SDS011;1923;48.154;11.536;2023-06-22T09:52:42;6.17;;;3.20;;
3815;SDS011;1923;48.154;11.536;2023-06-22T09:55:14;5.70;;;3.07;;
3815;SDS011;1923;48.154;11.536;2023-06-22T09:57:43;5.30;;;3.07;;
3815;SDS011;1923;48.154;11.536;2023-06-22T10:00:11;5.50;;;4.00;;
3815;SDS011;1923;48.154;11.536;2023-06-22T10:02:41;6.63;;;3.17;;
3815;SDS011;1923;48.154;11.536;2023-06-22T10:05:12;4.77;;;3.30;;
3815;SDS011;1923;48.154;11.536;2023-06-22T10:07:40;6.03;;;3.53;;
3815;SDS011;1923;48.154;11.536;2023-06-22T10:10:11;5.13;;;3.40;;
3815;SDS011;1923;48.154;11.536;2023-06-22T10:12:41;6.30;;;3.40;;
3815;SDS011;1923;48.154;11.536;2023-06-22T10:15:11;6.37;;;3.77;;
3815;SDS011;1923;48.154;11.536;2023-06-22T10:17:40;7.80;;;3.43;;
3815;SDS011;1923;48.154;11.536;2023-06-22T10:20:08;6.80;;;3.20;;
3815;SDS011;1923;48.154;11.536;2023-06-22T10:22:40;7.10;;;3.40;;
3815;SDS011;1923;48.154;11.536;2023-06-22T10:25:09;7.77;;;4.80;;
3815;SDS011;1923;48.154;11.536;2023-06-22T10:27:38;7.73;;;3.53;;
3815;SDS011;1923;48.154;11.536;2023-06-22T10:30:08;5.60;;;3.57;;
3815;SDS011;1923;48.154;11.536;2023-06-22T10:32:39;5.80;;;3.70;;
3815;SDS011;1923;48.154;11.536;2023-06-22T10:35:10;7.93;;;3.80;;
3815;SDS011;1923;48.154;11.536;2023-06-22T10:37:44;8.67;;;3.17;;
3815;SDS011;1923;48.154;11.536;2023-06-22T10:40:14;6.43;;;3.20;;
3815;SDS011;1923;48.154;11.536;2023-06-22T10:42:44;6.20;;;3.53;;
3815;SDS011;1923;48.154;11.536;2023-06-22T10:45:13;4.30;;;3.13;;
3815;SDS011;1923;48.154;11.536;2023-06-22T10:47:41;6.10;;;3.00;;
3815;SDS011;1923;48.154;11.536;2023-06-22T10:50:10;5.33;;;2.83;;
3815;SDS011;1923;48.154;11.536;2023-06-22T10:52:38;5.40;;;3.60;;
3815;SDS011;1923;48.154;11.536;2023-06-22T10:55:09;6.10;;;3.13;;
3815;SDS011;1923;48.154;11.536;2023-06-22T10:57:38;4.17;;;3.03;;
3815;SDS011;1923;48.154;11.536;2023-06-22T11:00:10;5.57;;;3.10;;
3815;SDS011;1923;48.154;11.536;2023-06-22T11:02:39;5.00;;;3.33;;
3815;SDS011;1923;48.154;11.536;2023-06-22T11:05:07;4.50;;;2.53;;
3815;SDS011;1923;48.154;11.536;2023-06-22T11:07:36;5.07;;;3.00;;
3815;SDS011;1923;48.154;11.536;2023-06-22T11:10:12;7.20;;;3.73;;
3815;SDS011;1923;48.154;11.536;2023-06-22T11:12:40;5.20;;;3.10;;
3815;SDS011;1923;48.154;11.536;2023-06-22T11:15:09;6.37;;;3.57;;
3815;SDS011;1923;48.154;11.536;2023-06-22T11:17:37;8.30;;;3.70;;
3815;SDS011;1923;48.154;11.536;2023-06-22T11:20:05;5.87;;;3.27;;
3815;SDS011;1923;48.154;11.536;2023-06-22T11:22:37;4.80;;;3.80;;
3815;SDS011;1923;48.154;11.536;2023-06-22T11:25:06;6.67;;;3.80;;
3815;SDS011;1923;48.154;11.536;2023-06-22T11:27:36;7.37;;;3.90;;
3815;SDS011;1923;48.154;11.536;2023-06-22T11:30:05;7.70;;;4.70;;
3815;SDS011;1923;48.154;11.536;2023-06-22T11:32:34;8.07;;;3.43;;
3815;SDS011;1923;48.154;11.536;2023-06-22T11:35:02;6.30;;;3.90;;
3815;SDS011;1923;48.154;11.536;2023-06-22T11:37:31;9.97;;;3.47;;
3815;SDS011;1923;48.154;11.536;2023-06-22T11:39:59;6.50;;;3.50;;
3815;SDS011;1923;48.154;11.536;2023-06-22T11:42:33;7.27;;;4.00;;
3815;SDS011;1923;48.154;11.536;2023-06-22T11:45:04;4.50;;;3.53;;
3815;SDS011;1923;48.154;11.536;2023-06-22T11:47:33;4.50;;;3.13;;
3815;SDS011;1923;48.154;11.536;2023-06-22T11:50:01;7.67;;;3.63;;
3815;SDS011;1923;48.154;11.536;2023-06-22T11:52:29;5.67;;;3.70;;
3815;SDS011;1923;48.154;11.536;2023-06-22T11:54:57;9.57;;;3.77;;
3815;SDS011;1923;48.154;11.536;2023-06-22T11:57:26;7.37;;;4.00;;
3815;SDS011;1923;48.154;11.536;2023-06-22T11:59:53;6.70;;;3.60;;
3815;SDS011;1923;48.154;11.536;2023-06-22T12:02:23;6.50;;;3.60;;
3815;SDS011;1923;48.154;11.536;2023-06-22T12:04:51;8.77;;;3.87;;
3815;SDS011;1923;48.154;11.536;2023-06-22T12:07:21;6.73;;;3.60;;
3815;SDS011;1923;48.154;11.536;2023-06-22T12:09:49;5.97;;;3.50;;
3815;SDS011;1923;48.154;11.536;2023-06-22T12:12:18;6.40;;;3.83;;
3815;SDS011;1923;48.154;11.536;2023-06-22T12:14:46;9.57;;;4.33;;
3815;SDS011;1923;48.154;11.536;2023-06-22T12:17:14;6.40;;;3.50;;
3815;SDS011;1923;48.154;11.536;2023-06-22T12:19:43;7.83;;;4.30;;
3815;SDS011;1923;48.154;11.536;2023-06-22T12:22:11;6.90;;;3.50;;
3815;SDS011;1923;48.154;11.536;2023-06-22T12:24:39;8.33;;;3.77;;
3815;SDS011;1923;48.154;11.536;2023-06-22T12:27:07;5.07;;;3.40;;
3815;SDS011;1923;48.154;11.536;2023-06-22T12:29:36;5.70;;;3.40;;
3815;SDS011;1923;48.154;11.536;2023-06-22T12:32:04;6.60;;;3.73;;
3815;SDS011;1923;48.154;11.536;2023-06-22T12:34:33;10.27;;;4.30;;
3815;SDS011;1923;48.154;11.536;2023-06-22T12:37:02;6.93;;;3.70;;
3815;SDS011;1923;48.154;11.536;2023-06-22T12:39:32;5.47;;;3.27;;
3815;SDS011;1923;48.154;11.536;2023-06-22T12:42:00;6.50;;;3.90;;
3815;SDS011;1923;48.154;11.536;2023-06-22T12:44:28;5.23;;;3.60;;
3815;SDS011;1923;48.154;11.536;2023-06-22T12:46:56;6.27;;;3.77;;
3815;SDS011;1923;48.154;11.536;2023-06-22T12:49:24;6.70;;;3.97;;
3815;SDS011;1923;48.154;11.536;2023-06-22T12:51:52;6.30;;;3.80;;
3815;SDS011;1923;48.154;11.536;2023-06-22T12:54:22;5.83;;;3.53;;
3815;SDS011;1923;48.154;11.536;2023-06-22T12:56:49;5.30;;;3.70;;
3815;SDS011;1923;48.154;11.536;2023-06-22T12:59:20;9.27;;;4.30;;
3815;SDS011;1923;48.154;11.536;2023-06-22T13:01:49;7.87;;;3.90;;
3815;SDS011;1923;48.154;11.536;2023-06-22T13:04:27;8.87;;;3.60;;
3815;SDS011;1923;48.154;11.536;2023-06-22T13:07:00;5.17;;;3.30;;
3815;SDS011;1923;48.154;11.536;2023-06-22T13:09:50;5.23;;;3.60;;
3815;SDS011;1923;48.154;11.536;2023-06-22T13:12:23;6.53;;;3.47;;
3815;SDS011;1923;48.154;11.536;2023-06-22T13:14:56;6.47;;;3.27;;
3815;SDS011;1923;48.154;11.536;2023-06-22T13:17:28;6.60;;;3.60;;
3815;SDS011;1923;48.154;11.536;2023-06-22T13:20:01;5.47;;;3.37;;
3815;SDS011;1923;48.154;11.536;2023-06-22T13:22:36;7.03;;;3.70;;
3815;SDS011;1923;48.154;11.536;2023-06-22T13:25:13;6.83;;;3.43;;
3815;SDS011;1923;48.154;11.536;2023-06-22T13:27:48;7.50;;;4.00;;
3815;SDS011;1923;48.154;11.536;2023-06-22T13:30:20;8.93;;;3.40;;
3815;SDS011;1923;48.154;11.536;2023-06-22T13:32:48;6.40;;;3.67;;
3815;SDS011;1923;48.154;11.536;2023-06-22T13:35:16;5.17;;;3.23;;
3815;SDS011;1923;48.154;11.536;2023-06-22T13:37:45;5.63;;;4.00;;
3815;SDS011;1923;48.154;11.536;2023-06-22T13:40:14;9.80;;;3.60;;
3815;SDS011;1923;48.154;11.536;2023-06-22T13:42:42;6.90;;;2.80;;
3815;SDS011;1923;48.154;11.536;2023-06-22T13:45:10;6.20;;;3.43;;
3815;SDS011;1923;48.154;11.536;2023-06-22T13:47:39;4.67;;;3.30;;
3815;SDS011;1923;48.154;11.536;2023-06-22T13:50:07;5.83;;;3.40;;
3815;SDS011;1923;48.154;11.536;2023-06-22T13:52:36;8.17;;;3.73;;
3815;SDS011;1923;48.154;11.536;2023-06-22T13:55:04;5.27;;;3.53;;
3815;SDS011;1923;48.154;11.536;2023-06-22T13:57:35;6.20;;;3.70;;
3815;SDS011;1923;48.154;11.536;2023-06-22T14:00:05;6.53;;;3.13;;
3815;SDS011;1923;48.154;11.536;2023-06-22T14:02:34;4.03;;;3.07;;
3815;SDS011;1923;48.154;11.536;2023-06-22T14:05:02;6.50;;;3.30;;
3815;SDS011;1923;48.154;11.536;2023-06-22T14:07:31;4.47;;;3.17;;
3815;SDS011;1923;48.154;11.536;2023-06-22T14:09:59;6.63;;;3.53;;
3815;SDS011;1923;48.154;11.536;2023-06-22T14:12:27;7.90;;;4.00;;
3815;SDS011;1923;48.154;11.536;2023-06-22T14:14:57;5.87;;;3.60;;
3815;SDS011;1923;48.154;11.536;2023-06-22T14:17:25;5.03;;;3.30;;
3815;SDS011;1923;48.154;11.536;2023-06-22T14:19:53;6.00;;;3.67;;
3815;SDS011;1923;48.154;11.536;2023-06-22T14:22:22;10.87;;;3.47;;
3815;SDS011;1923;48.154;11.536;2023-06-22T14:24:50;5.40;;;3.40;;
3815;SDS011;1923;48.154;11.536;2023-06-22T14:27:18;6.13;;;3.10;;
3815;SDS011;1923;48.154;11.536;2023-06-22T14:29:46;14.27;;;3.90;;
3815;SDS011;1923;48.154;11.536;2023-06-22T14:32:16;7.43;;;3.23;;
3815;SDS011;1923;48.154;11.536;2023-06-22T14:34:44;7.30;;;3.53;;
3815;SDS011;1923;48.154;11.536;2023-06-22T14:37:12;4.60;;;3.10;;
3815;SDS011;1923;48.154;11.536;2023-06-22T14:39:40;6.40;;;3.60;;
3815;SDS011;1923;48.154;11.536;2023-06-22T14:42:09;5.13;;;2.80;;
3815;SDS011;1923;48.154;11.536;2023-06-22T14:44:37;11.60;;;4.30;;
3815;SDS011;1923;48.154;11.536;2023-06-22T14:47:05;5.53;;;3.10;;
3815;SDS011;1923;48.154;11.536;2023-06-22T14:49:35;7.37;;;3.50;;
3815;SDS011;1923;48.154;11.536;2023-06-22T14:52:03;6.33;;;3.73;;
3815;SDS011;1923;48.154;11.536;2023-06-22T14:54:32;7.00;;;3.10;;
3815;SDS011;1923;48.154;11.536;2023-06-22T14:57:01;5.70;;;2.70;;
3815;SDS011;1923;48.154;11.536;2023-06-22T14:59:29;6.57;;;3.20;;
3815;SDS011;1923;48.154;11.536;2023-06-22T15:01:57;6.07;;;3.37;;
3815;SDS011;1923;48.154;11.536;2023-06-22T15:04:25;5.30;;;3.30;;
3815;SDS011;1923;48.154;11.536;2023-06-22T15:06:59;5.90;;;2.63;;
3815;SDS011;1923;48.154;11.536;2023-06-22T15:09:27;6.03;;;2.90;;
3815;SDS011;1923;48.154;11.536;2023-06-22T15:11:55;5.17;;;3.10;;